sensor_id;sensor_type;location;lat;lon;timestamp;pressure;altitude;pressure_sealevel;temperature;humidity
49044;BME280;34860;48.066;14.124;2023-07-28T00:02:16;96047.69;;;18.99;51.64
49044;BME280;34860;48.066;14.124;2023-07-28T00:05:06;96042.03;;;18.94;51.49
49044;BME280;34860;48.066;14.124;2023-07-28T00:07:54;96042.53;;;18.92;51.50
49044;BME280;34860;48.066;14.124;2023-07-28T00:10:42;96040.78;;;18.89;51.75
49044;BME280;34860;48.066;14.124;2023-07-28T00:13:30;96036.66;;;18.84;51.67
49044;BME280;34860;48.066;14.124;2023-07-28T00:16:21;96032.28;;;18.83;51.77
49044;BME280;34860;48.066;14.124;2023-07-28T00:19:09;96033.78;;;18.79;51.72
49044;BME280;34860;48.066;14.124;2023-07-28T00:21:59;96027.91;;;18.77;51.85
49044;BME280;34860;48.066;14.124;2023-07-28T00:24:47;96025.34;;;18.73;51.82
49044;BME280;34860;48.066;14.124;2023-07-28T00:27:35;96025.56;;;18.69;51.82
49044;BME280;34860;48.066;14.124;2023-07-28T00:30:24;96023.00;;;18.66;52.29
49044;BME280;34860;48.066;14.124;2023-07-28T00:33:12;96022.75;;;18.64;52.04
49044;BME280;34860;48.066;14.124;2023-07-28T00:36:00;96018.91;;;18.61;51.89
49044;BME280;34860;48.066;14.124;2023-07-28T00:38:49;96019.16;;;18.58;52.05
49044;BME280;34860;48.066;14.124;2023-07-28T00:41:37;96028.59;;;18.55;51.97
49044;BME280;34860;48.066;14.124;2023-07-28T00:44:25;96024.75;;;18.52;52.12
49044;BME280;34860;48.066;14.124;2023-07-28T00:47:13;96013.75;;;18.48;51.85
49044;BME280;34860;48.066;14.124;2023-07-28T00:50:01;96010.41;;;18.44;51.97
49044;BME280;34860;48.066;14.124;2023-07-28T00:52:50;96004.50;;;18.42;52.09
49044;BME280;34860;48.066;14.124;2023-07-28T00:55:40;95997.09;;;18.39;52.07
49044;BME280;34860;48.066;14.124;2023-07-28T00:58:29;96006.53;;;18.36;52.18
49044;BME280;34860;48.066;14.124;2023-07-28T01:01:17;96001.91;;;18.33;52.13
49044;BME280;34860;48.066;14.124;2023-07-28T01:04:08;96005.75;;;18.30;52.02
49044;BME280;34860;48.066;14.124;2023-07-28T01:07:01;96003.19;;;18.26;52.13
49044;BME280;34860;48.066;14.124;2023-07-28T01:09:57;96003.69;;;18.25;52.09
49044;BME280;34860;48.066;14.124;2023-07-28T01:12:50;96008.28;;;18.22;52.18
49044;BME280;34860;48.066;14.124;2023-07-28T01:15:38;95999.56;;;18.20;52.11
49044;BME280;34860;48.066;14.124;2023-07-28T01:18:26;96001.13;;;18.21;52.33
49044;BME280;34860;48.066;14.124;2023-07-28T01:21:20;95988.06;;;18.18;52.33
49044;BME280;34860;48.066;14.124;2023-07-28T01:24:15;95983.69;;;18.17;52.43
49044;BME280;34860;48.066;14.124;2023-07-28T01:27:10;95984.19;;;18.15;52.40
49044;BME280;34860;48.066;14.124;2023-07-28T01:29:58;95984.72;;;18.14;52.17
49044;BME280;34860;48.066;14.124;2023-07-28T01:32:47;95986.00;;;18.13;52.41
49044;BME280;34860;48.066;14.124;2023-07-28T01:35:35;95987.53;;;18.14;52.19
49044;BME280;34860;48.066;14.124;2023-07-28T01:38:24;95970.91;;;18.10;52.01
49044;BME280;34860;48.066;14.124;2023-07-28T01:41:12;95967.31;;;18.10;52.36
49044;BME280;34860;48.066;14.124;2023-07-28T01:44:01;95966.56;;;18.09;52.55
49044;BME280;34860;48.066;14.124;2023-07-28T01:46:49;95968.59;;;18.09;52.35
49044;BME280;34860;48.066;14.124;2023-07-28T01:49:37;95968.31;;;18.07;52.53
49044;BME280;34860;48.066;14.124;2023-07-28T01:52:31;95972.91;;;18.04;52.32
49044;BME280;34860;48.066;14.124;2023-07-28T01:55:19;95976.22;;;18.03;52.47
49044;BME280;34860;48.066;14.124;2023-07-28T01:58:07;95985.16;;;18.01;52.42
49044;BME280;34860;48.066;14.124;2023-07-28T02:00:57;95970.84;;;17.99;52.69
49044;BME280;34860;48.066;14.124;2023-07-28T02:03:45;95969.28;;;17.98;52.67
49044;BME280;34860;48.066;14.124;2023-07-28T02:06:33;95977.97;;;17.94;52.68
49044;BME280;34860;48.066;14.124;2023-07-28T02:09:21;95968.53;;;17.92;52.75
49044;BME280;34860;48.066;14.124;2023-07-28T02:12:09;95973.88;;;17.90;52.80
49044;BME280;34860;48.066;14.124;2023-07-28T02:14:57;95977.97;;;17.89;52.71
49044;BME280;34860;48.066;14.124;2023-07-28T02:17:48;95974.06;;;17.86;52.75
49044;BME280;34860;48.066;14.124;2023-07-28T02:20:36;95981.75;;;17.86;52.71
49044;BME280;34860;48.066;14.124;2023-07-28T02:23:25;95981.47;;;17.84;52.90
49044;BME280;34860;48.066;14.124;2023-07-28T02:26:13;95988.13;;;17.81;52.83
49044;BME280;34860;48.066;14.124;2023-07-28T02:29:01;95991.66;;;17.75;52.83
49044;BME280;34860;48.066;14.124;2023-07-28T02:31:49;95985.22;;;17.69;53.14
49044;BME280;34860;48.066;14.124;2023-07-28T02:34:39;95989.25;;;17.63;53.32
49044;BME280;34860;48.066;14.124;2023-07-28T02:37:28;95995.13;;;17.59;53.35
49044;BME280;34860;48.066;14.124;2023-07-28T02:40:16;95989.97;;;17.52;53.63
49044;BME280;34860;48.066;14.124;2023-07-28T02:43:04;95986.38;;;17.46;53.88
49044;BME280;34860;48.066;14.124;2023-07-28T02:45:53;95985.06;;;17.41;53.71
49044;BME280;34860;48.066;14.124;2023-07-28T02:48:41;95985.00;;;17.35;53.96
49044;BME280;34860;48.066;14.124;2023-07-28T02:51:32;95982.94;;;17.30;54.00
49044;BME280;34860;48.066;14.124;2023-07-28T02:54:21;95975.50;;;17.27;54.14
49044;BME280;34860;48.066;14.124;2023-07-28T02:57:10;95984.16;;;17.23;54.24
49044;BME280;34860;48.066;14.124;2023-07-28T03:00:02;95989.97;;;17.20;54.16
49044;BME280;34860;48.066;14.124;2023-07-28T03:02:52;95996.63;;;17.17;54.22
49044;BME280;34860;48.066;14.124;2023-07-28T03:05:41;95985.88;;;17.15;54.38
49044;BME280;34860;48.066;14.124;2023-07-28T03:08:44;95983.56;;;17.14;54.25
49044;BME280;34860;48.066;14.124;2023-07-28T03:11:52;95990.69;;;17.09;54.27
49044;BME280;34860;48.066;14.124;2023-07-28T03:14:40;95995.25;;;17.06;54.15
49044;BME280;34860;48.066;14.124;2023-07-28T03:17:28;95997.78;;;17.04;54.35
49044;BME280;34860;48.066;14.124;2023-07-28T03:20:17;95996.72;;;17.02;54.23
49044;BME280;34860;48.066;14.124;2023-07-28T03:23:05;96002.06;;;17.00;54.37
49044;BME280;34860;48.066;14.124;2023-07-28T03:25:54;95998.22;;;16.97;54.30
49044;BME280;34860;48.066;14.124;2023-07-28T03:28:42;96004.31;;;16.96;54.53
49044;BME280;34860;48.066;14.124;2023-07-28T03:31:30;95997.69;;;16.93;54.44
49044;BME280;34860;48.066;14.124;2023-07-28T03:34:22;95999.44;;;16.91;54.42
49044;BME280;34860;48.066;14.124;2023-07-28T03:37:11;96001.19;;;16.88;54.56
49044;BME280;34860;48.066;14.124;2023-07-28T03:39:59;96001.72;;;16.86;54.62
49044;BME280;34860;48.066;14.124;2023-07-28T03:42:58;96006.22;;;16.84;54.65
49044;BME280;34860;48.066;14.124;2023-07-28T03:45:46;96014.66;;;16.84;54.73
49044;BME280;34860;48.066;14.124;2023-07-28T03:48:35;96017.47;;;16.84;54.62
49044;BME280;34860;48.066;14.124;2023-07-28T03:51:22;96020.25;;;16.84;54.58
49044;BME280;34860;48.066;14.124;2023-07-28T03:54:11;96026.63;;;16.84;54.72
49044;BME280;34860;48.066;14.124;2023-07-28T03:56:59;96025.69;;;16.87;54.61
49044;BME280;34860;48.066;14.124;2023-07-28T03:59:48;96019.06;;;16.91;54.39
49044;BME280;34860;48.066;14.124;2023-07-28T04:02:36;96021.66;;;16.94;54.36
49044;BME280;34860;48.066;14.124;2023-07-28T04:05:24;96024.25;;;16.98;54.30
49044;BME280;34860;48.066;14.124;2023-07-28T04:08:12;96032.22;;;17.05;54.12
49044;BME280;34860;48.066;14.124;2023-07-28T04:11:00;96015.94;;;17.09;54.31
49044;BME280;34860;48.066;14.124;2023-07-28T04:13:48;96017.75;;;17.12;54.27
49044;BME280;34860;48.066;14.124;2023-07-28T04:16:38;96008.59;;;17.17;54.02
49044;BME280;34860;48.066;14.124;2023-07-28T04:19:27;96024.47;;;17.20;54.20
49044;BME280;34860;48.066;14.124;2023-07-28T04:22:15;96025.50;;;17.23;54.21
49044;BME280;34860;48.066;14.124;2023-07-28T04:25:09;96023.72;;;17.25;54.40
49044;BME280;34860;48.066;14.124;2023-07-28T04:28:02;96027.59;;;17.28;54.27
49044;BME280;34860;48.066;14.124;2023-07-28T04:30:50;96033.97;;;17.29;54.32
49044;BME280;34860;48.066;14.124;2023-07-28T04:34:01;96037.03;;;17.31;54.34
49044;BME280;34860;48.066;14.124;2023-07-28T04:37:09;96027.38;;;17.32;54.41
49044;BME280;34860;48.066;14.124;2023-07-28T04:40:19;96036.06;;;17.34;54.38
49044;BME280;34860;48.066;14.124;2023-07-28T04:43:07;96029.66;;;17.33;54.62
49044;BME280;34860;48.066;14.124;2023-07-28T04:45:56;96036.84;;;17.34;54.60
49044;BME280;34860;48.066;14.124;2023-07-28T04:48:45;96022.28;;;17.36;54.60
49044;BME280;34860;48.066;14.124;2023-07-28T04:52:07;96026.91;;;17.39;54.66
49044;BME280;34860;48.066;14.124;2023-07-28T04:55:13;96029.19;;;17.40;54.67
49044;BME280;34860;48.066;14.124;2023-07-28T04:58:01;96028.22;;;17.43;54.87
49044;BME280;34860;48.066;14.124;2023-07-28T05:01:02;96019.84;;;17.49;54.59
49044;BME280;34860;48.066;14.124;2023-07-28T05:03:51;96015.53;;;17.54;54.96
49044;BME280;34860;48.066;14.124;2023-07-28T05:06:43;96012.25;;;17.61;54.74
49044;BME280;34860;48.066;14.124;2023-07-28T05:09:33;96011.00;;;17.68;54.66
49044;BME280;34860;48.066;14.124;2023-07-28T05:12:22;96026.41;;;17.78;54.72
49044;BME280;34860;48.066;14.124;2023-07-28T05:15:13;96020.59;;;17.87;54.62
49044;BME280;34860;48.066;14.124;2023-07-28T05:18:01;96021.97;;;17.97;54.62
49044;BME280;34860;48.066;14.124;2023-07-28T05:20:57;96028.69;;;18.11;54.66
49044;BME280;34860;48.066;14.124;2023-07-28T05:23:46;96031.31;;;18.26;54.24
49044;BME280;34860;48.066;14.124;2023-07-28T05:26:37;96012.19;;;18.42;54.35
49044;BME280;34860;48.066;14.124;2023-07-28T05:29:26;96013.53;;;18.58;54.02
49044;BME280;34860;48.066;14.124;2023-07-28T05:32:20;96014.09;;;18.73;53.79
49044;BME280;34860;48.066;14.124;2023-07-28T05:35:29;96017.97;;;18.87;53.92
49044;BME280;34860;48.066;14.124;2023-07-28T05:38:17;96017.47;;;19.00;53.75
49044;BME280;34860;48.066;14.124;2023-07-28T05:41:05;96022.09;;;19.14;53.79
49044;BME280;34860;48.066;14.124;2023-07-28T05:43:55;96016.22;;;19.23;53.85
49044;BME280;34860;48.066;14.124;2023-07-28T05:46:43;96023.38;;;19.30;54.05
49044;BME280;34860;48.066;14.124;2023-07-28T05:49:32;96015.44;;;19.40;53.95
49044;BME280;34860;48.066;14.124;2023-07-28T05:52:20;96018.25;;;19.51;54.29
49044;BME280;34860;48.066;14.124;2023-07-28T05:55:09;96006.47;;;19.58;54.33
49044;BME280;34860;48.066;14.124;2023-07-28T05:57:57;96007.25;;;19.65;54.21
49044;BME280;34860;48.066;14.124;2023-07-28T06:00:47;96004.69;;;19.72;54.48
49044;BME280;34860;48.066;14.124;2023-07-28T06:03:55;96009.81;;;19.80;54.32
49044;BME280;34860;48.066;14.124;2023-07-28T06:06:47;96011.31;;;19.86;54.42
49044;BME280;34860;48.066;14.124;2023-07-28T06:09:37;96012.09;;;19.92;54.38
49044;BME280;34860;48.066;14.124;2023-07-28T06:12:25;96009.25;;;19.98;54.26
49044;BME280;34860;48.066;14.124;2023-07-28T06:15:13;96017.97;;;20.06;54.44
49044;BME280;34860;48.066;14.124;2023-07-28T06:18:03;96005.13;;;20.10;54.50
49044;BME280;34860;48.066;14.124;2023-07-28T06:20:51;96014.31;;;20.17;54.57
49044;BME280;34860;48.066;14.124;2023-07-28T06:23:39;96007.41;;;20.23;54.45
49044;BME280;34860;48.066;14.124;2023-07-28T06:26:27;96015.31;;;20.30;54.44
49044;BME280;34860;48.066;14.124;2023-07-28T06:29:15;96014.00;;;20.37;54.38
49044;BME280;34860;48.066;14.124;2023-07-28T06:32:04;96017.56;;;20.43;54.23
49044;BME280;34860;48.066;14.124;2023-07-28T06:34:54;96020.34;;;20.55;54.28
49044;BME280;34860;48.066;14.124;2023-07-28T06:37:44;96009.78;;;20.61;54.24
49044;BME280;34860;48.066;14.124;2023-07-28T06:40:33;96016.22;;;20.67;54.18
49044;BME280;34860;48.066;14.124;2023-07-28T06:43:21;96025.38;;;20.79;54.12
49044;BME280;34860;48.066;14.124;2023-07-28T06:46:11;96024.53;;;20.90;53.76
49044;BME280;34860;48.066;14.124;2023-07-28T06:49:00;96020.13;;;21.00;53.62
49044;BME280;34860;48.066;14.124;2023-07-28T06:51:50;96015.69;;;21.10;53.64
49044;BME280;34860;48.066;14.124;2023-07-28T06:54:38;96025.13;;;21.18;53.56
49044;BME280;34860;48.066;14.124;2023-07-28T06:57:26;96028.66;;;21.30;53.32
49044;BME280;34860;48.066;14.124;2023-07-28T07:00:15;96028.56;;;21.41;53.02
49044;BME280;34860;48.066;14.124;2023-07-28T07:03:04;96036.22;;;21.52;53.14
49044;BME280;34860;48.066;14.124;2023-07-28T07:05:53;96047.66;;;21.66;52.98
49044;BME280;34860;48.066;14.124;2023-07-28T07:08:43;96040.09;;;21.80;52.72
49044;BME280;34860;48.066;14.124;2023-07-28T07:11:32;96045.41;;;21.89;52.56
49044;BME280;34860;48.066;14.124;2023-07-28T07:14:21;96049.44;;;21.99;52.46
49044;BME280;34860;48.066;14.124;2023-07-28T07:17:09;96049.09;;;22.08;52.27
49044;BME280;34860;48.066;14.124;2023-07-28T07:19:57;96052.59;;;22.14;52.35
49044;BME280;34860;48.066;14.124;2023-07-28T07:22:45;96057.44;;;22.20;52.36
49044;BME280;34860;48.066;14.124;2023-07-28T07:25:35;96061.22;;;22.28;52.30
49044;BME280;34860;48.066;14.124;2023-07-28T07:28:23;96082.00;;;22.36;52.31
49044;BME280;34860;48.066;14.124;2023-07-28T07:31:12;96109.22;;;22.45;52.06
49044;BME280;34860;48.066;14.124;2023-07-28T07:34:01;96114.78;;;22.51;51.89
49044;BME280;34860;48.066;14.124;2023-07-28T07:36:50;96114.50;;;22.54;51.80
49044;BME280;34860;48.066;14.124;2023-07-28T07:39:38;96103.78;;;22.47;52.23
49044;BME280;34860;48.066;14.124;2023-07-28T07:42:41;96110.78;;;22.40;52.42
49044;BME280;34860;48.066;14.124;2023-07-28T07:45:30;96110.84;;;22.35;52.44
49044;BME280;34860;48.066;14.124;2023-07-28T07:48:19;96126.09;;;22.26;52.74
49044;BME280;34860;48.066;14.124;2023-07-28T07:51:08;96107.63;;;22.19;52.76
49044;BME280;34860;48.066;14.124;2023-07-28T07:53:57;96119.53;;;22.12;52.95
49044;BME280;34860;48.066;14.124;2023-07-28T07:56:45;96130.88;;;22.06;53.15
49044;BME280;34860;48.066;14.124;2023-07-28T07:59:35;96127.34;;;22.00;53.18
49044;BME280;34860;48.066;14.124;2023-07-28T08:02:23;96142.06;;;21.93;53.24
49044;BME280;34860;48.066;14.124;2023-07-28T08:05:11;96144.94;;;21.87;53.25
49044;BME280;34860;48.066;14.124;2023-07-28T08:07:59;96135.50;;;21.79;53.35
49044;BME280;34860;48.066;14.124;2023-07-28T08:10:48;96145.84;;;21.71;53.68
49044;BME280;34860;48.066;14.124;2023-07-28T08:13:36;96165.44;;;21.63;53.72
49044;BME280;34860;48.066;14.124;2023-07-28T08:16:25;96133.34;;;21.55;53.92
49044;BME280;34860;48.066;14.124;2023-07-28T08:19:13;96138.28;;;21.49;54.21
49044;BME280;34860;48.066;14.124;2023-07-28T08:22:02;96129.53;;;21.41;53.92
49044;BME280;34860;48.066;14.124;2023-07-28T08:24:51;96150.94;;;21.36;54.50
49044;BME280;34860;48.066;14.124;2023-07-28T08:27:40;96143.00;;;21.29;54.61
49044;BME280;34860;48.066;14.124;2023-07-28T08:30:29;96133.25;;;21.25;54.75
49044;BME280;34860;48.066;14.124;2023-07-28T08:33:19;96139.19;;;21.21;54.90
49044;BME280;34860;48.066;14.124;2023-07-28T08:36:08;96144.34;;;21.17;54.97
49044;BME280;34860;48.066;14.124;2023-07-28T08:38:56;96154.63;;;21.14;55.12
49044;BME280;34860;48.066;14.124;2023-07-28T08:41:45;96143.34;;;21.14;55.06
49044;BME280;34860;48.066;14.124;2023-07-28T08:44:34;96156.44;;;21.12;55.17
49044;BME280;34860;48.066;14.124;2023-07-28T08:47:23;96157.72;;;21.11;55.25
49044;BME280;34860;48.066;14.124;2023-07-28T08:50:13;96173.16;;;21.10;55.21
49044;BME280;34860;48.066;14.124;2023-07-28T08:53:02;96176.22;;;21.12;55.15
49044;BME280;34860;48.066;14.124;2023-07-28T08:55:51;96170.06;;;21.13;55.17
49044;BME280;34860;48.066;14.124;2023-07-28T08:58:39;96170.81;;;21.14;55.27
49044;BME280;34860;48.066;14.124;2023-07-28T09:01:27;96172.59;;;21.17;55.15
49044;BME280;34860;48.066;14.124;2023-07-28T09:04:17;96175.41;;;21.17;55.11
49044;BME280;34860;48.066;14.124;2023-07-28T09:07:06;96170.03;;;21.19;55.32
49044;BME280;34860;48.066;14.124;2023-07-28T09:09:58;96165.66;;;21.18;55.35
49044;BME280;34860;48.066;14.124;2023-07-28T09:12:47;96174.13;;;21.18;55.39
49044;BME280;34860;48.066;14.124;2023-07-28T09:15:36;96150.25;;;21.19;55.51
49044;BME280;34860;48.066;14.124;2023-07-28T09:18:25;96143.81;;;21.18;55.20
49044;BME280;34860;48.066;14.124;2023-07-28T09:21:18;96143.81;;;21.18;55.53
49044;BME280;34860;48.066;14.124;2023-07-28T09:24:10;96142.53;;;21.19;55.64
49044;BME280;34860;48.066;14.124;2023-07-28T09:26:59;96152.81;;;21.22;55.51
49044;BME280;34860;48.066;14.124;2023-07-28T09:29:48;96144.56;;;21.25;55.61
49044;BME280;34860;48.066;14.124;2023-07-28T09:32:36;96153.28;;;21.27;55.68
49044;BME280;34860;48.066;14.124;2023-07-28T09:35:24;96148.34;;;21.33;55.69
49044;BME280;34860;48.066;14.124;2023-07-28T09:38:13;96148.06;;;21.42;55.70
49044;BME280;34860;48.066;14.124;2023-07-28T09:41:03;96138.53;;;21.51;55.64
49044;BME280;34860;48.066;14.124;2023-07-28T09:43:54;96156.72;;;21.61;55.68
49044;BME280;34860;48.066;14.124;2023-07-28T09:46:49;96154.28;;;21.76;55.52
49044;BME280;34860;48.066;14.124;2023-07-28T09:49:41;96145.72;;;21.88;55.32
49044;BME280;34860;48.066;14.124;2023-07-28T09:52:34;96142.78;;;21.99;55.21
49044;BME280;34860;48.066;14.124;2023-07-28T09:55:25;96150.88;;;22.14;55.08
49044;BME280;34860;48.066;14.124;2023-07-28T09:58:16;96141.78;;;22.27;54.94
49044;BME280;34860;48.066;14.124;2023-07-28T10:01:05;96149.38;;;22.43;54.70
49044;BME280;34860;48.066;14.124;2023-07-28T10:03:54;96141.75;;;22.57;54.68
49044;BME280;34860;48.066;14.124;2023-07-28T10:06:42;96126.66;;;22.74;54.68
49044;BME280;34860;48.066;14.124;2023-07-28T10:09:31;96132.09;;;22.91;54.28
49044;BME280;34860;48.066;14.124;2023-07-28T10:12:23;96136.03;;;23.07;54.12
49044;BME280;34860;48.066;14.124;2023-07-28T10:15:15;96126.56;;;23.23;53.85
49044;BME280;34860;48.066;14.124;2023-07-28T10:18:06;96121.94;;;23.39;53.70
49044;BME280;34860;48.066;14.124;2023-07-28T10:21:04;96117.34;;;23.55;53.87
49044;BME280;34860;48.066;14.124;2023-07-28T10:23:57;96122.75;;;23.72;53.53
49044;BME280;34860;48.066;14.124;2023-07-28T10:26:45;96124.16;;;23.84;53.47
49044;BME280;34860;48.066;14.124;2023-07-28T10:29:37;96106.59;;;23.99;53.08
49044;BME280;34860;48.066;14.124;2023-07-28T10:32:27;96108.72;;;24.12;53.03
49044;BME280;34860;48.066;14.124;2023-07-28T10:35:23;96119.03;;;24.28;53.14
49044;BME280;34860;48.066;14.124;2023-07-28T10:38:30;96118.69;;;24.45;52.76
49044;BME280;34860;48.066;14.124;2023-07-28T10:41:19;96120.81;;;24.58;52.74
49044;BME280;34860;48.066;14.124;2023-07-28T10:44:07;96113.28;;;24.74;52.66
49044;BME280;34860;48.066;14.124;2023-07-28T10:46:55;96112.50;;;24.87;52.17
49044;BME280;34860;48.066;14.124;2023-07-28T10:49:48;96107.56;;;25.01;52.49
49044;BME280;34860;48.066;14.124;2023-07-28T10:52:39;96103.94;;;25.14;52.50
49044;BME280;34860;48.066;14.124;2023-07-28T10:55:27;96115.81;;;25.26;52.33
49044;BME280;34860;48.066;14.124;2023-07-28T10:58:15;96111.66;;;25.40;52.12
49044;BME280;34860;48.066;14.124;2023-07-28T11:01:03;96111.63;;;25.53;51.75
49044;BME280;34860;48.066;14.124;2023-07-28T11:03:51;96108.72;;;25.67;51.70
49044;BME280;34860;48.066;14.124;2023-07-28T11:06:43;96106.38;;;25.79;51.85
49044;BME280;34860;48.066;14.124;2023-07-28T11:09:32;96110.81;;;25.87;51.30
49044;BME280;34860;48.066;14.124;2023-07-28T11:12:20;96116.38;;;25.93;51.26
49044;BME280;34860;48.066;14.124;2023-07-28T11:15:09;96116.50;;;26.01;51.33
49044;BME280;34860;48.066;14.124;2023-07-28T11:17:58;96115.34;;;26.04;50.96
49044;BME280;34860;48.066;14.124;2023-07-28T11:20:46;96102.84;;;26.07;51.19
49044;BME280;34860;48.066;14.124;2023-07-28T11:23:36;96101.19;;;26.12;51.15
49044;BME280;34860;48.066;14.124;2023-07-28T11:26:24;96110.72;;;26.14;50.70
49044;BME280;34860;48.066;14.124;2023-07-28T11:29:12;96109.59;;;26.17;50.79
49044;BME280;34860;48.066;14.124;2023-07-28T11:32:01;96107.69;;;26.20;50.32
49044;BME280;34860;48.066;14.124;2023-07-28T11:34:49;96106.81;;;26.25;50.14
49044;BME280;34860;48.066;14.124;2023-07-28T11:37:39;96107.00;;;26.27;50.44
49044;BME280;34860;48.066;14.124;2023-07-28T11:40:29;96098.09;;;26.31;49.91
49044;BME280;34860;48.066;14.124;2023-07-28T11:43:17;96100.41;;;26.32;50.00
49044;BME280;34860;48.066;14.124;2023-07-28T11:46:33;96092.81;;;26.35;50.09
49044;BME280;34860;48.066;14.124;2023-07-28T11:49:21;96105.16;;;26.37;49.99
49044;BME280;34860;48.066;14.124;2023-07-28T11:52:09;96098.34;;;26.40;49.97
49044;BME280;34860;48.066;14.124;2023-07-28T11:54:58;96107.69;;;26.41;49.90
49044;BME280;34860;48.066;14.124;2023-07-28T11:57:48;96103.31;;;26.40;49.78
49044;BME280;34860;48.066;14.124;2023-07-28T12:00:40;96107.47;;;26.39;49.72
49044;BME280;34860;48.066;14.124;2023-07-28T12:03:29;96115.81;;;26.37;49.71
49044;BME280;34860;48.066;14.124;2023-07-28T12:06:18;96121.44;;;26.29;49.58
49044;BME280;34860;48.066;14.124;2023-07-28T12:09:14;96128.81;;;26.24;49.42
49044;BME280;34860;48.066;14.124;2023-07-28T12:12:02;96120.44;;;26.19;49.77
49044;BME280;34860;48.066;14.124;2023-07-28T12:14:53;96115.84;;;26.16;49.43
49044;BME280;34860;48.066;14.124;2023-07-28T12:18:03;96125.84;;;26.09;49.64
49044;BME280;34860;48.066;14.124;2023-07-28T12:20:55;96116.50;;;26.01;49.51
49044;BME280;34860;48.066;14.124;2023-07-28T12:23:44;96124.69;;;25.91;49.62
49044;BME280;34860;48.066;14.124;2023-07-28T12:26:34;96125.19;;;25.82;49.54
49044;BME280;34860;48.066;14.124;2023-07-28T12:29:25;96122.63;;;25.70;49.70
49044;BME280;34860;48.066;14.124;2023-07-28T12:32:17;96120.25;;;25.61;49.29
49044;BME280;34860;48.066;14.124;2023-07-28T12:35:08;96124.31;;;25.52;49.83
49044;BME280;34860;48.066;14.124;2023-07-28T12:38:00;96127.84;;;25.45;49.35
49044;BME280;34860;48.066;14.124;2023-07-28T12:40:48;96125.88;;;25.40;49.62
49044;BME280;34860;48.066;14.124;2023-07-28T12:43:39;96137.94;;;25.33;49.67
49044;BME280;34860;48.066;14.124;2023-07-28T12:46:30;96131.81;;;25.29;49.66
49044;BME280;34860;48.066;14.124;2023-07-28T12:49:19;96131.38;;;25.25;49.72
49044;BME280;34860;48.066;14.124;2023-07-28T12:52:07;96141.00;;;25.22;50.02
49044;BME280;34860;48.066;14.124;2023-07-28T12:55:05;96144.41;;;25.20;49.68
49044;BME280;34860;48.066;14.124;2023-07-28T12:57:56;96135.41;;;25.16;49.68
49044;BME280;34860;48.066;14.124;2023-07-28T13:00:45;96142.97;;;25.13;49.67
49044;BME280;34860;48.066;14.124;2023-07-28T13:03:35;96137.84;;;25.12;50.04
49044;BME280;34860;48.066;14.124;2023-07-28T13:06:26;96129.09;;;25.10;49.72
49044;BME280;34860;48.066;14.124;2023-07-28T13:09:14;96140.25;;;25.08;50.14
49044;BME280;34860;48.066;14.124;2023-07-28T13:12:05;96144.19;;;25.05;49.93
49044;BME280;34860;48.066;14.124;2023-07-28T13:14:59;96122.53;;;25.01;50.14
49044;BME280;34860;48.066;14.124;2023-07-28T13:17:47;96135.78;;;24.99;50.00
49044;BME280;34860;48.066;14.124;2023-07-28T13:20:35;96131.94;;;24.96;50.43
49044;BME280;34860;48.066;14.124;2023-07-28T13:23:24;96121.88;;;24.95;50.46
49044;BME280;34860;48.066;14.124;2023-07-28T13:26:12;96141.56;;;24.93;50.42
49044;BME280;34860;48.066;14.124;2023-07-28T13:29:00;96142.66;;;24.90;50.47
49044;BME280;34860;48.066;14.124;2023-07-28T13:31:49;96150.44;;;24.90;50.44
49044;BME280;34860;48.066;14.124;2023-07-28T13:34:37;96156.66;;;24.88;50.56
49044;BME280;34860;48.066;14.124;2023-07-28T13:37:25;96150.22;;;24.88;50.77
49044;BME280;34860;48.066;14.124;2023-07-28T13:40:15;96142.47;;;24.88;50.65
49044;BME280;34860;48.066;14.124;2023-07-28T13:43:03;96157.66;;;24.91;50.53
49044;BME280;34860;48.066;14.124;2023-07-28T13:45:51;96146.06;;;24.89;50.31
49044;BME280;34860;48.066;14.124;2023-07-28T13:48:39;96152.72;;;24.91;50.62
49044;BME280;34860;48.066;14.124;2023-07-28T13:51:37;96146.06;;;24.89;50.24
49044;BME280;34860;48.066;14.124;2023-07-28T13:54:29;96149.69;;;24.89;50.36
49044;BME280;34860;48.066;14.124;2023-07-28T13:57:38;96146.84;;;24.89;50.55
49044;BME280;34860;48.066;14.124;2023-07-28T14:00:26;96154.81;;;24.91;50.34
49044;BME280;34860;48.066;14.124;2023-07-28T14:03:14;96154.03;;;24.90;50.49
49044;BME280;34860;48.066;14.124;2023-07-28T14:06:03;96154.81;;;24.91;50.62
49044;BME280;34860;48.066;14.124;2023-07-28T14:08:51;96152.94;;;24.93;50.58
49044;BME280;34860;48.066;14.124;2023-07-28T14:11:39;96162.47;;;24.96;50.57
49044;BME280;34860;48.066;14.124;2023-07-28T14:14:28;96153.06;;;25.01;50.21
49044;BME280;34860;48.066;14.124;2023-07-28T14:17:16;96165.63;;;25.06;50.31
49044;BME280;34860;48.066;14.124;2023-07-28T14:20:05;96161.16;;;25.10;50.31
49044;BME280;34860;48.066;14.124;2023-07-28T14:22:54;96157.75;;;25.12;50.11
49044;BME280;34860;48.066;14.124;2023-07-28T14:25:42;96162.09;;;25.13;50.27
49044;BME280;34860;48.066;14.124;2023-07-28T14:28:30;96162.34;;;25.15;50.06
49044;BME280;34860;48.066;14.124;2023-07-28T14:31:19;96167.47;;;25.16;49.93
49044;BME280;34860;48.066;14.124;2023-07-28T14:34:07;96177.53;;;25.17;49.91
49044;BME280;34860;48.066;14.124;2023-07-28T14:36:55;96169.97;;;25.20;49.81
49044;BME280;34860;48.066;14.124;2023-07-28T14:39:43;96178.19;;;25.24;49.96
49044;BME280;34860;48.066;14.124;2023-07-28T14:42:31;96179.16;;;25.26;49.62
49044;BME280;34860;48.066;14.124;2023-07-28T14:45:19;96183.78;;;25.29;49.60
49044;BME280;34860;48.066;14.124;2023-07-28T14:48:09;96183.66;;;25.35;49.51
49044;BME280;34860;48.066;14.124;2023-07-28T14:50:57;96188.03;;;25.36;49.50